createdAt,value
2017-06-21T00:02:27.316Z,1003.36
2017-06-21T00:03:07.844Z,1003.34
2017-06-21T00:03:48.352Z,1003.35
2017-06-21T00:04:28.831Z,1003.38
2017-06-21T00:05:09.326Z,1003.41
2017-06-21T00:05:49.802Z,1003.4
2017-06-21T00:06:30.320Z,1003.43
2017-06-21T00:07:10.851Z,1003.41
2017-06-21T00:07:51.321Z,1003.42
2017-06-21T00:08:31.819Z,1003.46
2017-06-21T00:09:12.315Z,1003.45
2017-06-21T00:09:52.803Z,1003.47
2017-06-21T00:10:33.289Z,1003.46
2017-06-21T00:11:13.775Z,1003.48
2017-06-21T00:11:54.335Z,1003.48
2017-06-21T00:12:34.759Z,1003.44
2017-06-21T00:13:15.241Z,1003.47
2017-06-21T00:13:55.797Z,1003.5
2017-06-21T00:14:36.231Z,1003.53
2017-06-21T00:15:16.734Z,1003.55
2017-06-21T00:15:57.309Z,1003.52
2017-06-21T00:16:37.729Z,1003.52
2017-06-21T00:17:18.221Z,1003.56
2017-06-21T00:17:58.722Z,1003.54
2017-06-21T00:18:39.214Z,1003.54
2017-06-21T00:19:19.716Z,1003.54
2017-06-21T00:20:00.216Z,1003.52
2017-06-21T00:20:40.729Z,1003.51
2017-06-21T00:21:21.181Z,1003.53
2017-06-21T00:22:01.728Z,1003.53
2017-06-21T00:22:42.154Z,1003.54
2017-06-21T00:23:22.657Z,1003.54
2017-06-21T00:24:03.157Z,1003.52
2017-06-21T00:24:43.656Z,1003.5
2017-06-21T00:25:24.150Z,1003.52
2017-06-21T00:26:04.649Z,1003.49
2017-06-21T00:26:45.144Z,1003.5
2017-06-21T00:27:25.650Z,1003.49
2017-06-21T00:28:06.144Z,1003.48
2017-06-21T00:28:46.645Z,1003.46
2017-06-21T00:29:27.134Z,1003.5
2017-06-21T00:30:07.612Z,1003.49
2017-06-21T00:30:48.108Z,1003.5
2017-06-21T00:31:28.611Z,1003.51
2017-06-21T00:32:09.100Z,1003.52
2017-06-21T00:32:49.590Z,1003.51
2017-06-21T00:33:30.087Z,1003.53
2017-06-21T00:34:10.569Z,1003.53
2017-06-21T00:34:51.066Z,1003.5
2017-06-21T00:35:31.560Z,1003.5
2017-06-21T00:36:12.050Z,1003.5
2017-06-21T00:36:52.545Z,1003.52
2017-06-21T00:37:33.043Z,1003.49
2017-06-21T00:38:13.562Z,1003.52
2017-06-21T00:38:54.016Z,1003.5
2017-06-21T00:39:34.513Z,1003.49
2017-06-21T00:41:32.128Z,1003.49
2017-06-21T00:42:12.667Z,1003.49
2017-06-21T00:42:53.115Z,1003.51
2017-06-21T00:43:33.632Z,1003.53
2017-06-21T00:44:14.100Z,1003.5
2017-06-21T00:44:54.593Z,1003.54
2017-06-21T00:45:35.100Z,1003.54
2017-06-21T00:46:15.582Z,1003.55
2017-06-21T00:46:56.103Z,1003.52
2017-06-21T00:47:36.582Z,1003.53
2017-06-21T00:48:17.073Z,1003.52
2017-06-21T00:48:57.560Z,1003.48
2017-06-21T00:49:38.052Z,1003.51
2017-06-21T00:50:18.535Z,1003.47
2017-06-21T00:50:59.024Z,1003.5
2017-06-21T00:51:39.494Z,1003.5
2017-06-21T00:52:19.985Z,1003.47
2017-06-21T00:53:00.477Z,1003.46
2017-06-21T00:53:40.959Z,1003.45
2017-06-21T00:54:21.449Z,1003.45
2017-06-21T00:55:01.927Z,1003.42
2017-06-21T00:55:42.421Z,1003.39
2017-06-21T00:56:22.897Z,1003.4
2017-06-21T00:57:03.390Z,1003.38
2017-06-21T00:57:43.889Z,1003.37
2017-06-21T00:58:24.384Z,1003.34
2017-06-21T00:59:04.869Z,1003.37
2017-06-21T00:59:45.380Z,1003.36
2017-06-21T01:00:25.857Z,1003.34
2017-06-21T01:01:06.330Z,1003.37
2017-06-21T01:01:46.817Z,1003.37
2017-06-21T01:02:27.304Z,1003.4
2017-06-21T01:03:07.791Z,1003.36
2017-06-21T01:03:48.268Z,1003.4
2017-06-21T01:04:28.770Z,1003.4
2017-06-21T01:05:09.270Z,1003.38
2017-06-21T01:05:49.765Z,1003.35
2017-06-21T01:06:30.249Z,1003.37
2017-06-21T01:07:10.745Z,1003.38
2017-06-21T01:07:51.224Z,1003.35
2017-06-21T01:08:31.711Z,1003.38
2017-06-21T01:09:12.215Z,1003.35
2017-06-21T01:09:52.710Z,1003.37
2017-06-21T01:10:33.205Z,1003.38
2017-06-21T01:11:13.709Z,1003.37
2017-06-21T01:11:54.185Z,1003.39
2017-06-21T01:12:34.698Z,1003.37
2017-06-21T01:13:15.204Z,1003.4
2017-06-21T01:13:55.699Z,1003.46
2017-06-21T01:14:36.194Z,1003.44
2017-06-21T01:15:16.692Z,1003.45
2017-06-21T01:15:57.176Z,1003.46
2017-06-21T01:16:37.672Z,1003.48
2017-06-21T01:17:18.177Z,1003.47
2017-06-21T01:17:58.684Z,1003.48
2017-06-21T01:18:39.167Z,1003.45
2017-06-21T01:19:19.677Z,1003.47
2017-06-21T01:20:00.169Z,1003.45
2017-06-21T01:20:40.663Z,1003.52
2017-06-21T01:21:21.158Z,1003.53
2017-06-21T01:22:01.650Z,1003.53
2017-06-21T01:22:42.144Z,1003.55
2017-06-21T01:23:22.617Z,1003.51
2017-06-21T01:24:03.112Z,1003.53
2017-06-21T01:24:43.632Z,1003.5
2017-06-21T01:25:24.117Z,1003.5
2017-06-21T01:26:04.612Z,1003.52
2017-06-21T01:26:45.103Z,1003.52
2017-06-21T01:27:25.613Z,1003.51
2017-06-21T01:28:06.115Z,1003.52
2017-06-21T01:28:46.612Z,1003.49
2017-06-21T01:29:27.112Z,1003.49
2017-06-21T01:30:07.707Z,1003.51
2017-06-21T01:30:48.107Z,1003.51
2017-06-21T01:31:28.612Z,1003.48
2017-06-21T01:32:09.103Z,1003.47
2017-06-21T01:32:49.591Z,1003.47
2017-06-21T01:33:30.085Z,1003.45
2017-06-21T01:34:10.574Z,1003.46
2017-06-21T01:34:51.068Z,1003.47
2017-06-21T01:35:31.545Z,1003.46
2017-06-21T01:36:12.075Z,1003.43
2017-06-21T01:36:52.538Z,1003.43
2017-06-21T01:37:33.029Z,1003.44
2017-06-21T01:38:13.530Z,1003.47
2017-06-21T01:38:54.021Z,1003.46
2017-06-21T01:39:34.534Z,1003.43
2017-06-21T01:40:15.033Z,1003.46
2017-06-21T01:40:55.509Z,1003.46
2017-06-21T01:41:35.996Z,1003.45
2017-06-21T01:42:16.486Z,1003.47
2017-06-21T01:42:57.049Z,1003.46
2017-06-21T01:43:37.473Z,1003.44
2017-06-21T01:44:17.958Z,1003.46
2017-06-21T01:44:58.450Z,1003.42
2017-06-21T01:45:38.970Z,1003.44
2017-06-21T01:46:19.427Z,1003.44
2017-06-21T01:46:59.911Z,1003.45
2017-06-21T01:47:40.402Z,1003.42
2017-06-21T01:48:20.906Z,1003.42
2017-06-21T01:49:01.405Z,1003.47
2017-06-21T01:49:41.900Z,1003.44
2017-06-21T01:50:22.380Z,1003.46
2017-06-21T01:51:02.883Z,1003.48
2017-06-21T01:51:43.369Z,1003.46
2017-06-21T01:52:23.902Z,1003.44
2017-06-21T01:53:04.378Z,1003.42
2017-06-21T01:53:44.885Z,1003.44
2017-06-21T01:54:25.399Z,1003.42
2017-06-21T01:55:05.923Z,1003.4
2017-06-21T01:55:46.406Z,1003.41
2017-06-21T01:56:26.893Z,1003.43
2017-06-21T01:57:07.414Z,1003.44
2017-06-21T01:57:47.876Z,1003.41
2017-06-21T01:58:28.362Z,1003.42
2017-06-21T01:59:08.860Z,1003.41
2017-06-21T01:59:49.352Z,1003.41
2017-06-21T02:00:29.834Z,1003.38
2017-06-21T02:01:10.454Z,1003.41
2017-06-21T02:01:50.851Z,1003.4
2017-06-21T02:02:31.365Z,1003.4
2017-06-21T02:03:11.844Z,1003.4
2017-06-21T02:03:52.330Z,1003.41
2017-06-21T02:04:32.829Z,1003.38
2017-06-21T02:05:13.324Z,1003.4
2017-06-21T02:05:53.810Z,1003.4
2017-06-21T02:06:34.319Z,1003.38
2017-06-21T02:07:14.799Z,1003.34
2017-06-21T02:07:55.277Z,1003.36
2017-06-21T02:08:35.767Z,1003.33
2017-06-21T02:09:16.249Z,1003.31
2017-06-21T02:09:56.746Z,1003.33
2017-06-21T02:10:37.205Z,1003.36
2017-06-21T02:11:17.690Z,1003.34
2017-06-21T02:11:58.178Z,1003.3
2017-06-21T02:12:38.698Z,1003.34
2017-06-21T02:13:19.177Z,1003.31
2017-06-21T02:13:59.697Z,1003.3
2017-06-21T02:14:40.144Z,1003.33
2017-06-21T02:15:20.650Z,1003.29
2017-06-21T02:16:01.138Z,1003.34
2017-06-21T02:16:41.621Z,1003.32
2017-06-21T02:17:22.107Z,1003.34
2017-06-21T02:18:02.610Z,1003.34
2017-06-21T02:18:43.105Z,1003.36
2017-06-21T02:19:23.582Z,1003.36
2017-06-21T02:20:04.054Z,1003.36
2017-06-21T02:20:44.551Z,1003.37
2017-06-21T02:21:25.034Z,1003.35
2017-06-21T02:22:05.528Z,1003.34
2017-06-21T02:22:46.577Z,1003.36
2017-06-21T02:23:27.066Z,1003.36
2017-06-21T02:24:07.553Z,1003.37
2017-06-21T02:24:48.062Z,1003.38
2017-06-21T02:25:28.562Z,1003.37
2017-06-21T02:26:09.054Z,1003.39
2017-06-21T02:26:49.677Z,1003.34
2017-06-21T02:27:30.101Z,1003.36
2017-06-21T02:28:10.592Z,1003.36
2017-06-21T02:28:51.068Z,1003.33
2017-06-21T02:29:31.560Z,1003.35
2017-06-21T02:30:12.045Z,1003.31
2017-06-21T02:30:52.547Z,1003.34
2017-06-21T02:31:33.038Z,1003.34
2017-06-21T02:32:13.532Z,1003.34
2017-06-21T02:32:54.031Z,1003.36
2017-06-21T02:33:34.528Z,1003.33
2017-06-21T02:34:15.019Z,1003.36
2017-06-21T02:34:55.513Z,1003.36
2017-06-21T02:35:35.993Z,1003.35
2017-06-21T02:36:16.482Z,1003.36
2017-06-21T02:36:56.984Z,1003.36
2017-06-21T02:37:37.471Z,1003.37
2017-06-21T02:38:17.972Z,1003.38
2017-06-21T02:38:58.452Z,1003.37
2017-06-21T02:39:38.945Z,1003.39
2017-06-21T02:40:19.431Z,1003.33
2017-06-21T02:40:59.913Z,1003.36
2017-06-21T02:41:40.415Z,1003.34
2017-06-21T02:42:20.926Z,1003.34
2017-06-21T02:43:01.402Z,1003.39
2017-06-21T02:43:41.897Z,1003.36
2017-06-21T02:44:22.375Z,1003.36
2017-06-21T02:45:02.870Z,1003.37
2017-06-21T02:45:43.347Z,1003.36
2017-06-21T02:46:23.836Z,1003.39
2017-06-21T02:47:04.326Z,1003.35
2017-06-21T02:49:17.037Z,1003.37
2017-06-21T02:49:57.525Z,1003.36
2017-06-21T02:50:38.020Z,1003.38
2017-06-21T02:51:18.526Z,1003.36
2017-06-21T02:51:59.008Z,1003.33
2017-06-21T02:52:39.494Z,1003.35
2017-06-21T02:53:19.987Z,1003.32
2017-06-21T02:54:01.916Z,1003.34
2017-06-21T02:54:43.121Z,1003.31
2017-06-21T02:55:23.593Z,1003.26
2017-06-21T02:56:04.071Z,1003.28
2017-06-21T02:56:44.567Z,1003.26
2017-06-21T02:57:25.056Z,1003.3
2017-06-21T02:58:05.549Z,1003.29
2017-06-21T02:58:46.053Z,1003.31
2017-06-21T02:59:26.541Z,1003.29
2017-06-21T03:00:07.033Z,1003.3
2017-06-21T03:00:47.531Z,1003.3
2017-06-21T03:01:28.026Z,1003.31
2017-06-21T03:02:08.507Z,1003.32
2017-06-21T03:02:49.532Z,1003.34
2017-06-21T03:03:30.036Z,1003.35
2017-06-21T03:04:10.516Z,1003.35
2017-06-21T03:04:51.020Z,1003.36
2017-06-21T03:05:31.512Z,1003.38
2017-06-21T03:06:12.013Z,1003.36
2017-06-21T03:06:52.504Z,1003.36
2017-06-21T03:07:32.995Z,1003.41
2017-06-21T03:08:14.040Z,1003.39
2017-06-21T03:08:54.527Z,1003.35
2017-06-21T03:09:35.017Z,1003.38
2017-06-21T03:10:15.512Z,1003.41
2017-06-21T03:10:56.001Z,1003.4
2017-06-21T03:11:36.526Z,1003.39
2017-06-21T03:12:16.991Z,1003.4
2017-06-21T03:12:57.477Z,1003.39
2017-06-21T03:13:37.940Z,1003.42
2017-06-21T03:14:18.440Z,1003.43
2017-06-21T03:14:58.921Z,1003.4
2017-06-21T03:15:39.420Z,1003.39
2017-06-21T03:16:19.916Z,1003.42
2017-06-21T03:17:00.405Z,1003.42
2017-06-21T03:17:40.909Z,1003.41
2017-06-21T03:18:21.391Z,1003.42
2017-06-21T03:19:01.868Z,1003.42
2017-06-21T03:19:42.364Z,1003.43
2017-06-21T03:20:22.846Z,1003.48
2017-06-21T03:21:03.346Z,1003.46
2017-06-21T03:21:43.832Z,1003.44
2017-06-21T03:22:24.327Z,1003.45
2017-06-21T03:23:04.827Z,1003.47
2017-06-21T03:23:45.318Z,1003.47
2017-06-21T03:24:26.365Z,1003.49
2017-06-21T03:25:06.852Z,1003.52
2017-06-21T03:25:47.319Z,1003.54
2017-06-21T03:26:27.793Z,1003.53
2017-06-21T03:27:08.301Z,1003.56
2017-06-21T03:27:48.787Z,1003.53
2017-06-21T03:28:29.276Z,1003.56
2017-06-21T03:29:09.772Z,1003.58
2017-06-21T03:29:50.282Z,1003.6
2017-06-21T03:30:30.767Z,1003.63
2017-06-21T03:31:11.243Z,1003.62
2017-06-21T03:31:51.742Z,1003.64
2017-06-21T03:32:32.223Z,1003.66
2017-06-21T03:33:12.736Z,1003.7
2017-06-21T03:33:53.214Z,1003.71
2017-06-21T03:34:33.702Z,1003.7
2017-06-21T03:35:14.205Z,1003.68
2017-06-21T03:35:54.698Z,1003.7
2017-06-21T03:36:35.180Z,1003.66
2017-06-21T03:37:15.687Z,1003.68
2017-06-21T03:37:56.187Z,1003.65
2017-06-21T03:38:36.663Z,1003.65
2017-06-21T03:39:17.170Z,1003.66
2017-06-21T03:39:57.664Z,1003.64
2017-06-21T03:40:38.162Z,1003.64
2017-06-21T03:41:18.647Z,1003.63
2017-06-21T03:41:59.133Z,1003.6
2017-06-21T03:42:39.639Z,1003.6
2017-06-21T03:43:20.120Z,1003.61
2017-06-21T03:44:00.606Z,1003.59
2017-06-21T03:44:41.093Z,1003.65
2017-06-21T03:45:21.590Z,1003.65
2017-06-21T03:46:02.085Z,1003.61
2017-06-21T03:46:42.569Z,1003.67
2017-06-21T03:47:23.070Z,1003.64
2017-06-21T03:48:03.559Z,1003.64
2017-06-21T03:48:44.079Z,1003.64
2017-06-21T03:49:24.588Z,1003.65
2017-06-21T03:50:05.067Z,1003.64
2017-06-21T03:50:45.565Z,1003.65
2017-06-21T03:51:26.053Z,1003.66
2017-06-21T03:52:06.542Z,1003.62
2017-06-21T03:52:47.044Z,1003.64
2017-06-21T03:53:27.539Z,1003.65
2017-06-21T03:54:08.781Z,1003.67
2017-06-21T03:54:49.209Z,1003.71
2017-06-21T03:55:29.681Z,1003.69
2017-06-21T03:56:10.122Z,1003.66
2017-06-21T03:56:50.572Z,1003.69
2017-06-21T03:58:43.155Z,1003.73
2017-06-21T03:59:23.627Z,1003.72
2017-06-21T04:00:04.092Z,1003.77
2017-06-21T04:00:44.541Z,1003.74
2017-06-21T04:01:24.989Z,1003.74
2017-06-21T04:02:05.449Z,1003.7
2017-06-21T04:02:45.903Z,1003.73
2017-06-21T04:03:26.884Z,1003.73
2017-06-21T04:04:07.324Z,1003.73
2017-06-21T04:04:47.763Z,1003.71
2017-06-21T04:05:28.226Z,1003.72
2017-06-21T04:06:08.635Z,1003.74
2017-06-21T04:06:49.112Z,1003.75
2017-06-21T04:07:29.549Z,1003.8
2017-06-21T04:09:27.204Z,1003.81
2017-06-21T04:10:07.662Z,1003.8
2017-06-21T04:10:48.981Z,1003.86
2017-06-21T04:11:29.429Z,1003.84
2017-06-21T04:12:09.912Z,1003.87
2017-06-21T04:12:51.078Z,1003.87
2017-06-21T04:13:31.486Z,1003.86
2017-06-21T04:14:11.958Z,1003.87
2017-06-21T04:14:52.409Z,1003.87
2017-06-21T04:15:32.876Z,1003.82
2017-06-21T04:16:13.342Z,1003.89
2017-06-21T04:16:53.766Z,1003.87
2017-06-21T04:17:34.231Z,1003.87
2017-06-21T04:18:14.684Z,1003.91
2017-06-21T04:18:55.989Z,1003.87
2017-06-21T04:20:53.664Z,1003.84
2017-06-21T04:21:34.070Z,1003.85
2017-06-21T04:22:14.505Z,1003.85
2017-06-21T04:22:55.506Z,1003.85
2017-06-21T04:23:35.927Z,1003.89
2017-06-21T04:24:16.358Z,1003.85
2017-06-21T04:24:57.409Z,1003.89
2017-06-21T04:25:37.855Z,1003.89
2017-06-21T04:26:18.271Z,1003.92
2017-06-21T04:26:58.728Z,1003.96
2017-06-21T04:27:39.837Z,1003.94
2017-06-21T04:28:20.301Z,1003.98
2017-06-21T04:29:00.722Z,1003.97
2017-06-21T04:29:41.210Z,1003.98
2017-06-21T04:30:21.642Z,1003.96
2017-06-21T04:31:02.105Z,1004.02
2017-06-21T04:31:42.575Z,1004.01
2017-06-21T04:32:23.038Z,1004
2017-06-21T04:33:03.508Z,1004.02
2017-06-21T04:33:43.952Z,1003.99
2017-06-21T04:34:24.406Z,1004.02
2017-06-21T04:35:04.844Z,1004.02
2017-06-21T04:35:45.279Z,1004.01
2017-06-21T04:36:25.718Z,1004.05
2017-06-21T04:37:06.170Z,1004.03
2017-06-21T04:37:46.636Z,1004.03
2017-06-21T04:38:27.084Z,1004.07
2017-06-21T04:39:07.549Z,1004.11
2017-06-21T04:39:48.023Z,1004.1
2017-06-21T04:40:28.410Z,1004.1
2017-06-21T04:41:08.864Z,1004.08
2017-06-21T04:41:49.337Z,1004.08
2017-06-21T04:42:29.840Z,1004.1
2017-06-21T04:43:10.331Z,1004.1
2017-06-21T04:43:50.810Z,1004.11
2017-06-21T04:44:31.230Z,1004.13
2017-06-21T04:45:11.679Z,1004.15
2017-06-21T04:45:52.127Z,1004.11
2017-06-21T04:46:32.560Z,1004.15
2017-06-21T04:47:13.023Z,1004.16
2017-06-21T04:47:53.523Z,1004.17
2017-06-21T04:48:34.003Z,1004.18
2017-06-21T04:49:14.458Z,1004.17
2017-06-21T04:49:54.920Z,1004.18
2017-06-21T04:51:52.580Z,1004.21
2017-06-21T04:52:33.027Z,1004.24
2017-06-21T04:53:13.509Z,1004.24
2017-06-21T04:53:53.957Z,1004.27
2017-06-21T04:56:06.673Z,1004.29
2017-06-21T04:56:47.097Z,1004.29
2017-06-21T04:57:27.559Z,1004.29
2017-06-21T04:58:08.020Z,1004.31
2017-06-21T04:58:48.427Z,1004.3
2017-06-21T04:59:28.885Z,1004.3
2017-06-21T05:00:09.281Z,1004.28
2017-06-21T05:00:49.746Z,1004.31
2017-06-21T05:03:07.521Z,1004.26
2017-06-21T05:03:48.034Z,1004.29
2017-06-21T05:04:28.494Z,1004.29
2017-06-21T05:05:08.942Z,1004.29
2017-06-21T05:05:49.395Z,1004.29
2017-06-21T05:08:17.420Z,1004.28
2017-06-21T05:08:57.857Z,1004.3
2017-06-21T05:09:38.351Z,1004.25
2017-06-21T05:10:18.886Z,1004.27
2017-06-21T05:10:59.332Z,1004.26
2017-06-21T05:11:39.832Z,1004.26
2017-06-21T05:12:20.316Z,1004.28
2017-06-21T05:13:00.822Z,1004.27
2017-06-21T05:13:41.307Z,1004.28
2017-06-21T05:14:21.802Z,1004.3
2017-06-21T05:15:02.290Z,1004.27
2017-06-21T05:15:42.782Z,1004.26
2017-06-21T05:16:23.277Z,1004.28
2017-06-21T05:17:03.781Z,1004.27
2017-06-21T05:17:44.259Z,1004.29
2017-06-21T05:18:24.748Z,1004.3
2017-06-21T05:19:05.250Z,1004.27
2017-06-21T05:19:45.739Z,1004.3
2017-06-21T05:20:26.199Z,1004.32
2017-06-21T05:21:06.698Z,1004.33
2017-06-21T05:21:47.198Z,1004.35
2017-06-21T05:22:27.701Z,1004.35
2017-06-21T05:23:08.183Z,1004.33
2017-06-21T05:23:48.681Z,1004.3
2017-06-21T05:24:29.166Z,1004.33
2017-06-21T05:25:09.640Z,1004.33
2017-06-21T05:25:50.110Z,1004.3
2017-06-21T05:26:30.598Z,1004.36
2017-06-21T05:27:11.098Z,1004.32
2017-06-21T05:27:51.597Z,1004.31
2017-06-21T05:28:32.102Z,1004.32
2017-06-21T05:29:12.591Z,1004.36
2017-06-21T05:29:53.077Z,1004.35
2017-06-21T05:30:33.553Z,1004.34
2017-06-21T05:31:14.044Z,1004.34
2017-06-21T05:31:54.530Z,1004.33
2017-06-21T05:32:35.030Z,1004.36
2017-06-21T05:33:15.507Z,1004.37
2017-06-21T05:35:13.147Z,1004.37
2017-06-21T05:35:53.667Z,1004.38
2017-06-21T05:36:34.118Z,1004.34
2017-06-21T05:37:14.623Z,1004.36
2017-06-21T05:37:55.065Z,1004.4
2017-06-21T05:38:35.467Z,1004.4
2017-06-21T05:39:15.912Z,1004.4
2017-06-21T05:39:56.377Z,1004.43
2017-06-21T05:40:36.808Z,1004.41
2017-06-21T05:41:17.292Z,1004.44
2017-06-21T05:41:57.725Z,1004.44
2017-06-21T05:42:38.164Z,1004.47
2017-06-21T05:43:18.606Z,1004.48
2017-06-21T05:43:59.042Z,1004.5
2017-06-21T05:44:39.526Z,1004.54
2017-06-21T05:45:19.948Z,1004.48
2017-06-21T05:46:00.401Z,1004.53
2017-06-21T05:46:40.836Z,1004.52
2017-06-21T05:47:21.287Z,1004.5
2017-06-21T05:48:01.741Z,1004.48
2017-06-21T05:48:42.202Z,1004.5
2017-06-21T05:49:22.670Z,1004.46
2017-06-21T05:50:03.135Z,1004.45
2017-06-21T05:52:15.851Z,1004.46
2017-06-21T05:52:56.315Z,1004.46
2017-06-21T05:53:36.749Z,1004.49
2017-06-21T05:54:17.217Z,1004.5
2017-06-21T05:54:57.717Z,1004.53
2017-06-21T05:55:39.063Z,1004.53
2017-06-21T05:56:19.527Z,1004.51
2017-06-21T05:56:59.998Z,1004.53
2017-06-21T05:57:40.434Z,1004.49
2017-06-21T05:59:33.006Z,1004.54
2017-06-21T06:00:13.507Z,1004.54
2017-06-21T06:00:54.018Z,1004.5
2017-06-21T06:01:34.515Z,1004.5
2017-06-21T06:02:15.015Z,1004.46
2017-06-21T06:02:55.511Z,1004.5
2017-06-21T06:03:36.007Z,1004.5
2017-06-21T06:04:16.497Z,1004.46
2017-06-21T06:04:57.023Z,1004.52
2017-06-21T06:05:37.505Z,1004.52
2017-06-21T06:06:18.015Z,1004.52
2017-06-21T06:06:58.531Z,1004.51
2017-06-21T06:07:38.990Z,1004.5
2017-06-21T06:08:19.492Z,1004.53
2017-06-21T06:08:59.991Z,1004.47
2017-06-21T06:09:40.485Z,1004.51
2017-06-21T06:10:21.057Z,1004.54
2017-06-21T06:11:01.551Z,1004.51
2017-06-21T06:11:42.059Z,1004.53
2017-06-21T06:12:22.605Z,1004.57
2017-06-21T06:13:03.112Z,1004.66
2017-06-21T06:13:43.613Z,1004.63
2017-06-21T06:14:24.148Z,1004.61
2017-06-21T06:15:04.643Z,1004.62
2017-06-21T06:15:45.137Z,1004.65
2017-06-21T06:16:25.635Z,1004.66
2017-06-21T06:17:06.182Z,1004.7
2017-06-21T06:17:46.627Z,1004.66
2017-06-21T06:18:27.123Z,1004.72
2017-06-21T06:19:07.624Z,1004.68
2017-06-21T06:19:48.123Z,1004.69
2017-06-21T06:20:28.620Z,1004.66
2017-06-21T06:21:09.108Z,1004.63
2017-06-21T06:21:49.593Z,1004.65
2017-06-21T06:22:30.111Z,1004.64
2017-06-21T06:23:10.613Z,1004.64
2017-06-21T06:23:51.112Z,1004.64
2017-06-21T06:24:31.608Z,1004.66
2017-06-21T06:25:12.104Z,1004.7
2017-06-21T06:25:52.606Z,1004.63
2017-06-21T06:26:33.091Z,1004.68
2017-06-21T06:27:13.614Z,1004.71
2017-06-21T06:27:54.115Z,1004.7
2017-06-21T06:28:34.615Z,1004.74
2017-06-21T06:29:15.120Z,1004.73
2017-06-21T06:29:55.648Z,1004.74
2017-06-21T06:30:36.175Z,1004.71
2017-06-21T06:31:16.690Z,1004.71
2017-06-21T06:31:57.205Z,1004.72
2017-06-21T06:32:37.706Z,1004.75
2017-06-21T06:33:18.212Z,1004.73
2017-06-21T06:33:58.730Z,1004.72
2017-06-21T06:34:39.259Z,1004.7
2017-06-21T06:35:19.756Z,1004.73
2017-06-21T06:36:00.259Z,1004.72
2017-06-21T06:36:40.773Z,1004.7
2017-06-21T06:37:21.289Z,1004.75
2017-06-21T06:38:01.794Z,1004.79
2017-06-21T06:38:42.283Z,1004.78
2017-06-21T06:39:22.774Z,1004.8
2017-06-21T06:40:03.237Z,1004.8
2017-06-21T06:40:43.736Z,1004.79
2017-06-21T06:41:24.220Z,1004.77
2017-06-21T06:42:04.718Z,1004.78
2017-06-21T06:42:45.238Z,1004.76
2017-06-21T06:43:25.743Z,1004.77
2017-06-21T06:44:06.241Z,1004.77
2017-06-21T06:44:46.733Z,1004.79
2017-06-21T06:45:27.272Z,1004.75
2017-06-21T06:46:07.787Z,1004.74
2017-06-21T06:46:48.289Z,1004.76
2017-06-21T06:47:28.787Z,1004.73
2017-06-21T06:48:09.283Z,1004.77
2017-06-21T06:48:49.790Z,1004.74
2017-06-21T06:49:30.293Z,1004.74
2017-06-21T06:50:10.796Z,1004.73
2017-06-21T06:50:51.316Z,1004.72
2017-06-21T06:51:31.807Z,1004.73
2017-06-21T06:52:12.312Z,1004.71
2017-06-21T06:52:52.856Z,1004.71
2017-06-21T06:53:33.438Z,1004.73
2017-06-21T06:54:14.023Z,1004.75
2017-06-21T06:54:56.800Z,1004.76
2017-06-21T06:55:38.508Z,1004.78
2017-06-21T06:56:19.394Z,1004.75
2017-06-21T06:56:59.956Z,1004.76
2017-06-21T06:57:40.452Z,1004.77
2017-06-21T06:58:20.936Z,1004.79
2017-06-21T06:59:01.449Z,1004.78
2017-06-21T06:59:43.877Z,1004.77
2017-06-21T07:00:25.319Z,1004.75
2017-06-21T07:01:05.797Z,1004.77
2017-06-21T07:01:46.394Z,1004.8
2017-06-21T07:02:26.889Z,1004.75
2017-06-21T07:03:07.395Z,1004.76
2017-06-21T07:03:47.875Z,1004.79
2017-06-21T07:04:28.368Z,1004.79
2017-06-21T07:05:08.928Z,1004.77
2017-06-21T07:05:49.426Z,1004.8
2017-06-21T07:06:29.948Z,1004.8
2017-06-21T07:07:10.418Z,1004.87
2017-06-21T07:07:50.928Z,1004.85
2017-06-21T07:08:31.456Z,1004.82
2017-06-21T07:09:11.942Z,1004.85
2017-06-21T07:09:52.441Z,1004.87
2017-06-21T07:10:32.932Z,1004.84
2017-06-21T07:11:13.466Z,1004.86
2017-06-21T07:11:54.171Z,1004.84
2017-06-21T07:12:34.614Z,1004.83
2017-06-21T07:13:15.143Z,1004.82
2017-06-21T07:13:55.615Z,1004.82
2017-06-21T07:14:36.130Z,1004.83
2017-06-21T07:15:16.621Z,1004.81
2017-06-21T07:15:57.117Z,1004.85
2017-06-21T07:16:37.599Z,1004.89
2017-06-21T07:17:18.112Z,1004.84
2017-06-21T07:19:36.142Z,1004.9
2017-06-21T07:20:16.618Z,1004.84
2017-06-21T07:20:57.996Z,1004.83
2017-06-21T07:21:38.552Z,1004.86
2017-06-21T07:22:18.995Z,1004.82
2017-06-21T07:22:59.447Z,1004.84
2017-06-21T07:23:39.961Z,1004.84
2017-06-21T07:24:20.586Z,1004.86
2017-06-21T07:25:01.049Z,1004.82
2017-06-21T07:27:18.856Z,1004.83
2017-06-21T07:27:59.385Z,1004.8
2017-06-21T07:28:39.906Z,1004.78
2017-06-21T07:29:20.420Z,1004.79
2017-06-21T07:30:00.945Z,1004.81
2017-06-21T07:30:41.446Z,1004.83
2017-06-21T07:31:21.949Z,1004.86
2017-06-21T07:32:02.455Z,1004.83
2017-06-21T07:32:43.114Z,1004.79
2017-06-21T07:33:23.632Z,1004.82
2017-06-21T07:34:04.098Z,1004.81
2017-06-21T07:34:44.597Z,1004.82
2017-06-21T07:35:25.094Z,1004.82
2017-06-21T07:36:05.614Z,1004.77
2017-06-21T07:36:46.143Z,1004.82
2017-06-21T07:37:26.649Z,1004.79
2017-06-21T07:38:07.133Z,1004.8
2017-06-21T07:38:47.638Z,1004.82
2017-06-21T07:39:28.175Z,1004.85
2017-06-21T07:41:41.032Z,1004.84
2017-06-21T07:42:22.503Z,1004.87
2017-06-21T07:43:02.937Z,1004.88
2017-06-21T07:43:43.447Z,1004.86
2017-06-21T07:44:23.946Z,1004.88
2017-06-21T07:45:04.552Z,1004.87
2017-06-21T07:45:44.969Z,1004.87
2017-06-21T07:46:25.483Z,1004.84
2017-06-21T07:47:05.974Z,1004.83
2017-06-21T07:47:46.531Z,1004.79
2017-06-21T07:48:27.030Z,1004.8
2017-06-21T07:49:07.518Z,1004.8
2017-06-21T07:49:47.943Z,1004.78
2017-06-21T07:50:28.457Z,1004.76
2017-06-21T07:51:08.959Z,1004.78
2017-06-21T07:51:49.485Z,1004.78
2017-06-21T07:52:29.961Z,1004.79
2017-06-21T07:53:10.469Z,1004.79
2017-06-21T07:53:50.982Z,1004.8
2017-06-21T07:54:31.518Z,1004.79
2017-06-21T07:55:12.039Z,1004.78
2017-06-21T07:55:52.607Z,1004.77
2017-06-21T07:56:33.160Z,1004.77
2017-06-21T07:57:13.701Z,1004.76
2017-06-21T07:57:54.249Z,1004.74
2017-06-21T07:58:34.724Z,1004.76
2017-06-21T07:59:15.217Z,1004.74
2017-06-21T07:59:57.543Z,1004.74
2017-06-21T08:00:37.949Z,1004.73
2017-06-21T08:01:18.449Z,1004.74
2017-06-21T08:01:59.027Z,1004.74
2017-06-21T08:02:39.552Z,1004.74
2017-06-21T08:03:20.611Z,1004.76
2017-06-21T08:04:01.155Z,1004.73
2017-06-21T08:04:42.207Z,1004.74
2017-06-21T08:05:22.650Z,1004.74
2017-06-21T08:06:03.173Z,1004.78
2017-06-21T08:06:43.799Z,1004.75
2017-06-21T08:07:24.299Z,1004.76
2017-06-21T08:08:05.037Z,1004.74
2017-06-21T08:08:45.552Z,1004.72
2017-06-21T08:09:26.024Z,1004.76
2017-06-21T08:10:06.496Z,1004.75
2017-06-21T08:10:46.944Z,1004.74
2017-06-21T08:11:28.347Z,1004.75
2017-06-21T08:12:08.867Z,1004.74
2017-06-21T08:12:50.291Z,1004.76
2017-06-21T08:13:31.557Z,1004.75
2017-06-21T08:14:13.100Z,1004.77
2017-06-21T08:14:53.520Z,1004.79
2017-06-21T08:15:33.995Z,1004.83
2017-06-21T08:16:14.450Z,1004.85
2017-06-21T08:16:54.992Z,1004.9
2017-06-21T08:17:36.987Z,1004.87
2017-06-21T08:18:17.527Z,1004.89
2017-06-21T08:18:57.975Z,1004.89
2017-06-21T08:19:38.437Z,1004.88
2017-06-21T08:20:18.942Z,1004.9
2017-06-21T08:21:02.046Z,1004.91
2017-06-21T08:21:43.430Z,1004.89
2017-06-21T08:22:23.885Z,1004.9
2017-06-21T08:23:04.477Z,1004.9
2017-06-21T08:23:44.935Z,1004.91
2017-06-21T08:24:25.535Z,1004.91
2017-06-21T08:25:06.012Z,1004.94
2017-06-21T08:25:47.374Z,1004.92
2017-06-21T08:26:27.862Z,1004.92
2017-06-21T08:27:08.918Z,1004.9
2017-06-21T08:27:49.370Z,1004.86
2017-06-21T08:28:29.917Z,1004.9
2017-06-21T08:29:10.524Z,1004.92
2017-06-21T08:29:51.118Z,1004.94
2017-06-21T08:30:31.693Z,1004.93
2017-06-21T08:31:12.183Z,1004.89
2017-06-21T08:31:52.690Z,1004.93
2017-06-21T08:32:33.300Z,1004.9
2017-06-21T08:33:13.708Z,1004.93
2017-06-21T08:33:54.235Z,1004.94
2017-06-21T08:34:34.786Z,1004.94
2017-06-21T08:35:15.339Z,1004.88
2017-06-21T08:35:55.792Z,1004.88